sensor_id;sensor_type;location;lat;lon;timestamp;temperature;humidity
76838;DHT22;65797;47.352;8.164;2024-02-26T00:01:36;6.40;99.90
76838;DHT22;65797;47.352;8.164;2024-02-26T00:04:02;6.30;99.90
76838;DHT22;65797;47.352;8.164;2024-02-26T00:06:29;6.30;99.90
76838;DHT22;65797;47.352;8.164;2024-02-26T00:08:56;6.30;99.90
76838;DHT22;65797;47.352;8.164;2024-02-26T00:11:22;6.30;99.90
76838;DHT22;65797;47.352;8.164;2024-02-26T00:13:47;6.30;99.90
76838;DHT22;65797;47.352;8.164;2024-02-26T00:16:13;6.40;99.90
76838;DHT22;65797;47.352;8.164;2024-02-26T00:18:39;6.40;99.90
76838;DHT22;65797;47.352;8.164;2024-02-26T00:21:05;6.40;99.90
76838;DHT22;65797;47.352;8.164;2024-02-26T00:23:31;6.40;99.90
76838;DHT22;65797;47.352;8.164;2024-02-26T00:25:56;6.50;99.90
76838;DHT22;65797;47.352;8.164;2024-02-26T00:28:23;6.50;99.90
76838;DHT22;65797;47.352;8.164;2024-02-26T00:33:25;6.60;99.90
76838;DHT22;65797;47.352;8.164;2024-02-26T00:35:51;6.60;99.90
76838;DHT22;65797;47.352;8.164;2024-02-26T00:38:17;6.60;99.90
76838;DHT22;65797;47.352;8.164;2024-02-26T00:40:42;6.60;99.90
76838;DHT22;65797;47.352;8.164;2024-02-26T00:43:08;6.60;99.90
76838;DHT22;65797;47.352;8.164;2024-02-26T00:45:34;6.70;99.90
76838;DHT22;65797;47.352;8.164;2024-02-26T00:48:00;6.70;99.90
76838;DHT22;65797;47.352;8.164;2024-02-26T00:50:31;6.80;99.90
76838;DHT22;65797;47.352;8.164;2024-02-26T00:52:57;6.80;99.90
76838;DHT22;65797;47.352;8.164;2024-02-26T00:55:22;6.70;99.90
76838;DHT22;65797;47.352;8.164;2024-02-26T00:57:48;6.70;99.90
76838;DHT22;65797;47.352;8.164;2024-02-26T01:00:14;6.80;99.90
76838;DHT22;65797;47.352;8.164;2024-02-26T01:02:40;6.80;99.90
76838;DHT22;65797;47.352;8.164;2024-02-26T01:05:07;6.70;99.90
76838;DHT22;65797;47.352;8.164;2024-02-26T01:07:35;6.80;99.90
76838;DHT22;65797;47.352;8.164;2024-02-26T01:10:02;6.80;99.90
76838;DHT22;65797;47.352;8.164;2024-02-26T01:12:28;6.80;99.90
76838;DHT22;65797;47.352;8.164;2024-02-26T01:14:54;6.80;99.90
76838;DHT22;65797;47.352;8.164;2024-02-26T01:17:19;6.80;99.90
76838;DHT22;65797;47.352;8.164;2024-02-26T01:19:45;6.80;99.90
76838;DHT22;65797;47.352;8.164;2024-02-26T01:22:11;6.80;99.90
76838;DHT22;65797;47.352;8.164;2024-02-26T01:24:37;6.80;1.00
76838;DHT22;65797;47.352;8.164;2024-02-26T01:27:02;6.80;1.00
76838;DHT22;65797;47.352;8.164;2024-02-26T01:29:28;6.90;1.00
76838;DHT22;65797;47.352;8.164;2024-02-26T01:31:54;6.90;1.00
76838;DHT22;65797;47.352;8.164;2024-02-26T01:34:20;6.90;1.00
76838;DHT22;65797;47.352;8.164;2024-02-26T01:36:46;6.90;1.00
76838;DHT22;65797;47.352;8.164;2024-02-26T01:39:12;6.90;1.00
76838;DHT22;65797;47.352;8.164;2024-02-26T01:41:38;6.90;1.00
76838;DHT22;65797;47.352;8.164;2024-02-26T01:44:04;6.90;1.00
76838;DHT22;65797;47.352;8.164;2024-02-26T01:46:31;6.80;1.00
76838;DHT22;65797;47.352;8.164;2024-02-26T01:48:58;6.90;1.00
76838;DHT22;65797;47.352;8.164;2024-02-26T01:51:23;6.90;1.00
76838;DHT22;65797;47.352;8.164;2024-02-26T01:53:49;6.90;1.00
76838;DHT22;65797;47.352;8.164;2024-02-26T01:56:16;6.90;1.00
76838;DHT22;65797;47.352;8.164;2024-02-26T01:58:43;6.90;1.00
76838;DHT22;65797;47.352;8.164;2024-02-26T02:01:09;6.90;1.00
76838;DHT22;65797;47.352;8.164;2024-02-26T02:03:36;6.90;1.00
76838;DHT22;65797;47.352;8.164;2024-02-26T02:06:02;6.90;1.00
76838;DHT22;65797;47.352;8.164;2024-02-26T02:08:28;6.90;1.00
76838;DHT22;65797;47.352;8.164;2024-02-26T02:10:55;6.90;1.00
76838;DHT22;65797;47.352;8.164;2024-02-26T02:13:20;6.90;1.00
76838;DHT22;65797;47.352;8.164;2024-02-26T02:15:46;6.90;1.00
76838;DHT22;65797;47.352;8.164;2024-02-26T02:18:12;6.90;1.00
76838;DHT22;65797;47.352;8.164;2024-02-26T02:20:38;6.90;1.00
76838;DHT22;65797;47.352;8.164;2024-02-26T02:23:03;6.90;1.00
76838;DHT22;65797;47.352;8.164;2024-02-26T02:25:29;6.90;1.00
76838;DHT22;65797;47.352;8.164;2024-02-26T02:27:55;6.90;1.00
76838;DHT22;65797;47.352;8.164;2024-02-26T02:30:25;6.90;1.00
76838;DHT22;65797;47.352;8.164;2024-02-26T02:32:52;6.90;1.00
76838;DHT22;65797;47.352;8.164;2024-02-26T02:35:18;6.90;1.00
76838;DHT22;65797;47.352;8.164;2024-02-26T02:37:44;6.90;1.00
76838;DHT22;65797;47.352;8.164;2024-02-26T02:40:10;6.90;1.00
76838;DHT22;65797;47.352;8.164;2024-02-26T02:42:36;6.80;1.00
76838;DHT22;65797;47.352;8.164;2024-02-26T02:45:01;6.80;1.00
76838;DHT22;65797;47.352;8.164;2024-02-26T02:47:27;6.80;1.00
76838;DHT22;65797;47.352;8.164;2024-02-26T02:49:53;6.70;1.00
76838;DHT22;65797;47.352;8.164;2024-02-26T02:52:18;6.70;1.00
76838;DHT22;65797;47.352;8.164;2024-02-26T02:54:44;6.70;1.00
76838;DHT22;65797;47.352;8.164;2024-02-26T02:57:10;6.70;1.00
76838;DHT22;65797;47.352;8.164;2024-02-26T02:59:37;6.70;1.00
76838;DHT22;65797;47.352;8.164;2024-02-26T03:02:02;6.70;1.00
76838;DHT22;65797;47.352;8.164;2024-02-26T03:04:28;6.70;1.00
76838;DHT22;65797;47.352;8.164;2024-02-26T03:06:55;6.70;1.00
76838;DHT22;65797;47.352;8.164;2024-02-26T03:09:20;6.70;1.00
76838;DHT22;65797;47.352;8.164;2024-02-26T03:11:46;6.60;1.00
76838;DHT22;65797;47.352;8.164;2024-02-26T03:14:12;6.50;78.70
76838;DHT22;65797;47.352;8.164;2024-02-26T03:16:38;6.50;33.20
76838;DHT22;65797;47.352;8.164;2024-02-26T03:19:03;6.50;99.90
76838;DHT22;65797;47.352;8.164;2024-02-26T03:21:29;6.50;1.00
76838;DHT22;65797;47.352;8.164;2024-02-26T03:23:55;6.50;1.00
76838;DHT22;65797;47.352;8.164;2024-02-26T03:26:21;6.50;1.00
76838;DHT22;65797;47.352;8.164;2024-02-26T03:28:47;6.60;1.00
76838;DHT22;65797;47.352;8.164;2024-02-26T03:31:13;6.60;1.00
76838;DHT22;65797;47.352;8.164;2024-02-26T03:33:38;6.60;1.00
76838;DHT22;65797;47.352;8.164;2024-02-26T03:36:04;6.60;1.00
76838;DHT22;65797;47.352;8.164;2024-02-26T03:38:30;6.60;1.00
76838;DHT22;65797;47.352;8.164;2024-02-26T03:40:56;6.50;1.00
76838;DHT22;65797;47.352;8.164;2024-02-26T03:43:22;6.50;1.00
76838;DHT22;65797;47.352;8.164;2024-02-26T03:45:47;6.50;1.00
76838;DHT22;65797;47.352;8.164;2024-02-26T03:48:13;6.60;1.00
76838;DHT22;65797;47.352;8.164;2024-02-26T03:50:39;6.60;1.00
76838;DHT22;65797;47.352;8.164;2024-02-26T03:53:05;6.50;1.00
76838;DHT22;65797;47.352;8.164;2024-02-26T03:55:30;6.50;1.00
76838;DHT22;65797;47.352;8.164;2024-02-26T03:57:56;6.50;1.00
76838;DHT22;65797;47.352;8.164;2024-02-26T04:00:22;6.50;1.00
76838;DHT22;65797;47.352;8.164;2024-02-26T04:02:48;6.50;1.00
76838;DHT22;65797;47.352;8.164;2024-02-26T04:05:14;6.50;1.00
76838;DHT22;65797;47.352;8.164;2024-02-26T04:07:40;6.50;1.00
76838;DHT22;65797;47.352;8.164;2024-02-26T04:10:10;6.50;1.00
76838;DHT22;65797;47.352;8.164;2024-02-26T04:12:41;6.50;1.00
76838;DHT22;65797;47.352;8.164;2024-02-26T04:15:08;6.50;1.00
76838;DHT22;65797;47.352;8.164;2024-02-26T04:17:35;6.50;1.00
76838;DHT22;65797;47.352;8.164;2024-02-26T04:20:01;6.50;1.00
76838;DHT22;65797;47.352;8.164;2024-02-26T04:22:27;6.50;1.00
76838;DHT22;65797;47.352;8.164;2024-02-26T04:24:53;6.50;1.00
76838;DHT22;65797;47.352;8.164;2024-02-26T04:27:19;6.50;1.00
76838;DHT22;65797;47.352;8.164;2024-02-26T04:29:44;6.40;1.00
76838;DHT22;65797;47.352;8.164;2024-02-26T04:32:10;6.40;1.00
76838;DHT22;65797;47.352;8.164;2024-02-26T04:34:36;6.40;42.80
76838;DHT22;65797;47.352;8.164;2024-02-26T04:37:01;6.40;8.30
76838;DHT22;65797;47.352;8.164;2024-02-26T04:39:27;6.50;24.60
76838;DHT22;65797;47.352;8.164;2024-02-26T04:41:54;6.50;7.70
76838;DHT22;65797;47.352;8.164;2024-02-26T04:44:20;6.50;1.00
76838;DHT22;65797;47.352;8.164;2024-02-26T04:46:46;6.50;1.00
76838;DHT22;65797;47.352;8.164;2024-02-26T04:49:12;6.50;1.00
76838;DHT22;65797;47.352;8.164;2024-02-26T04:51:37;6.40;1.00
76838;DHT22;65797;47.352;8.164;2024-02-26T04:54:03;6.40;1.00
76838;DHT22;65797;47.352;8.164;2024-02-26T04:56:29;6.40;2.80
76838;DHT22;65797;47.352;8.164;2024-02-26T04:58:55;6.40;1.00
76838;DHT22;65797;47.352;8.164;2024-02-26T05:01:20;6.40;1.00
76838;DHT22;65797;47.352;8.164;2024-02-26T05:03:46;6.40;1.00
76838;DHT22;65797;47.352;8.164;2024-02-26T05:06:12;6.40;1.00
76838;DHT22;65797;47.352;8.164;2024-02-26T05:08:39;6.40;38.40
76838;DHT22;65797;47.352;8.164;2024-02-26T05:11:05;6.40;50.70
76838;DHT22;65797;47.352;8.164;2024-02-26T05:13:31;6.40;12.10
76838;DHT22;65797;47.352;8.164;2024-02-26T05:15:57;6.40;1.00
76838;DHT22;65797;47.352;8.164;2024-02-26T05:18:23;6.40;31.80
76838;DHT22;65797;47.352;8.164;2024-02-26T05:20:49;6.30;99.90
76838;DHT22;65797;47.352;8.164;2024-02-26T05:23:14;6.30;99.90
76838;DHT22;65797;47.352;8.164;2024-02-26T05:25:40;6.30;99.90
76838;DHT22;65797;47.352;8.164;2024-02-26T05:28:07;6.30;99.90
76838;DHT22;65797;47.352;8.164;2024-02-26T05:30:32;6.30;99.90
76838;DHT22;65797;47.352;8.164;2024-02-26T05:32:58;6.30;99.90
76838;DHT22;65797;47.352;8.164;2024-02-26T05:35:25;6.30;99.90
76838;DHT22;65797;47.352;8.164;2024-02-26T05:37:51;6.30;99.90
76838;DHT22;65797;47.352;8.164;2024-02-26T05:40:17;6.30;99.90
76838;DHT22;65797;47.352;8.164;2024-02-26T05:42:42;6.30;99.90
76838;DHT22;65797;47.352;8.164;2024-02-26T05:45:10;6.20;99.90
76838;DHT22;65797;47.352;8.164;2024-02-26T05:47:36;6.20;99.90
76838;DHT22;65797;47.352;8.164;2024-02-26T05:50:10;6.20;99.90
76838;DHT22;65797;47.352;8.164;2024-02-26T05:52:40;6.20;99.90
76838;DHT22;65797;47.352;8.164;2024-02-26T05:55:06;6.10;99.90
76838;DHT22;65797;47.352;8.164;2024-02-26T05:57:33;6.10;99.90
76838;DHT22;65797;47.352;8.164;2024-02-26T05:59:59;6.10;99.90
76838;DHT22;65797;47.352;8.164;2024-02-26T06:02:29;6.10;99.90
76838;DHT22;65797;47.352;8.164;2024-02-26T06:04:55;6.10;99.90
76838;DHT22;65797;47.352;8.164;2024-02-26T06:07:21;6.10;99.90
76838;DHT22;65797;47.352;8.164;2024-02-26T06:09:46;6.10;99.90
76838;DHT22;65797;47.352;8.164;2024-02-26T06:12:12;6.00;99.90
76838;DHT22;65797;47.352;8.164;2024-02-26T06:14:38;6.00;99.90
76838;DHT22;65797;47.352;8.164;2024-02-26T06:17:03;6.00;99.90
76838;DHT22;65797;47.352;8.164;2024-02-26T06:19:29;6.00;1.00
76838;DHT22;65797;47.352;8.164;2024-02-26T06:21:55;6.00;1.00
76838;DHT22;65797;47.352;8.164;2024-02-26T06:24:20;5.90;99.90
76838;DHT22;65797;47.352;8.164;2024-02-26T06:26:47;5.90;1.00
76838;DHT22;65797;47.352;8.164;2024-02-26T06:29:14;5.90;1.00
76838;DHT22;65797;47.352;8.164;2024-02-26T06:31:40;5.90;1.00
76838;DHT22;65797;47.352;8.164;2024-02-26T06:34:05;5.90;99.90
76838;DHT22;65797;47.352;8.164;2024-02-26T06:36:31;5.90;99.90
76838;DHT22;65797;47.352;8.164;2024-02-26T06:38:57;5.90;99.90
76838;DHT22;65797;47.352;8.164;2024-02-26T06:41:23;5.90;1.00
76838;DHT22;65797;47.352;8.164;2024-02-26T06:43:53;5.90;1.00
76838;DHT22;65797;47.352;8.164;2024-02-26T06:46:19;5.90;99.90
76838;DHT22;65797;47.352;8.164;2024-02-26T06:48:45;5.90;1.00
76838;DHT22;65797;47.352;8.164;2024-02-26T06:51:11;5.90;1.00
76838;DHT22;65797;47.352;8.164;2024-02-26T06:53:36;6.00;99.90
76838;DHT22;65797;47.352;8.164;2024-02-26T06:56:02;6.00;99.90
76838;DHT22;65797;47.352;8.164;2024-02-26T06:58:28;6.00;99.90
76838;DHT22;65797;47.352;8.164;2024-02-26T07:00:54;6.00;99.90
76838;DHT22;65797;47.352;8.164;2024-02-26T07:03:19;6.10;1.00
76838;DHT22;65797;47.352;8.164;2024-02-26T07:05:45;6.10;1.00
76838;DHT22;65797;47.352;8.164;2024-02-26T07:08:11;6.20;99.90
76838;DHT22;65797;47.352;8.164;2024-02-26T07:10:37;6.30;99.90
76838;DHT22;65797;47.352;8.164;2024-02-26T07:13:03;6.40;99.90
76838;DHT22;65797;47.352;8.164;2024-02-26T07:15:29;6.50;99.90
76838;DHT22;65797;47.352;8.164;2024-02-26T07:17:54;6.80;99.90
76838;DHT22;65797;47.352;8.164;2024-02-26T07:20:21;7.40;34.40
76838;DHT22;65797;47.352;8.164;2024-02-26T07:22:47;7.50;1.00
76838;DHT22;65797;47.352;8.164;2024-02-26T07:30:23;7.70;1.00
76838;DHT22;65797;47.352;8.164;2024-02-26T07:32:50;7.60;1.00
76838;DHT22;65797;47.352;8.164;2024-02-26T07:40:28;8.10;1.00
76838;DHT22;65797;47.352;8.164;2024-02-26T07:42:54;8.10;1.00
76838;DHT22;65797;47.352;8.164;2024-02-26T09:05:16;9.80;99.90
76838;DHT22;65797;47.352;8.164;2024-02-26T09:23:14;9.70;99.90
76838;DHT22;65797;47.352;8.164;2024-02-26T09:25:40;9.80;99.90
76838;DHT22;65797;47.352;8.164;2024-02-26T10:48:10;10.10;99.90
76838;DHT22;65797;47.352;8.164;2024-02-26T10:50:37;10.10;99.90
76838;DHT22;65797;47.352;8.164;2024-02-26T10:53:06;10.00;99.90
76838;DHT22;65797;47.352;8.164;2024-02-26T10:55:36;10.00;99.90
76838;DHT22;65797;47.352;8.164;2024-02-26T10:58:03;10.00;99.90
76838;DHT22;65797;47.352;8.164;2024-02-26T11:34:09;10.20;99.90
76838;DHT22;65797;47.352;8.164;2024-02-26T11:36:36;10.30;99.90
76838;DHT22;65797;47.352;8.164;2024-02-26T11:39:04;10.40;99.90
76838;DHT22;65797;47.352;8.164;2024-02-26T11:41:30;10.30;99.90
76838;DHT22;65797;47.352;8.164;2024-02-26T11:44:01;10.40;99.90
76838;DHT22;65797;47.352;8.164;2024-02-26T11:49:00;10.50;99.90
76838;DHT22;65797;47.352;8.164;2024-02-26T11:51:35;10.50;99.90
76838;DHT22;65797;47.352;8.164;2024-02-26T13:51:51;11.70;99.90
76838;DHT22;65797;47.352;8.164;2024-02-26T13:54:17;11.60;99.90
76838;DHT22;65797;47.352;8.164;2024-02-26T13:56:43;11.50;99.90
76838;DHT22;65797;47.352;8.164;2024-02-26T13:59:09;11.50;99.90
76838;DHT22;65797;47.352;8.164;2024-02-26T14:01:35;11.50;99.90
76838;DHT22;65797;47.352;8.164;2024-02-26T16:50:53;10.20;99.90
76838;DHT22;65797;47.352;8.164;2024-02-26T16:53:18;10.20;99.90
76838;DHT22;65797;47.352;8.164;2024-02-26T16:55:44;10.20;99.90
76838;DHT22;65797;47.352;8.164;2024-02-26T16:58:10;10.20;99.90
76838;DHT22;65797;47.352;8.164;2024-02-26T20:05:10;5.40;1.00
76838;DHT22;65797;47.352;8.164;2024-02-26T20:07:36;5.40;1.00
76838;DHT22;65797;47.352;8.164;2024-02-26T21:03:39;4.70;1.00
76838;DHT22;65797;47.352;8.164;2024-02-26T21:06:05;4.60;34.30
76838;DHT22;65797;47.352;8.164;2024-02-26T21:08:30;4.60;99.90
76838;DHT22;65797;47.352;8.164;2024-02-26T21:10:56;4.60;93.10
76838;DHT22;65797;47.352;8.164;2024-02-26T21:13:22;4.60;99.90
76838;DHT22;65797;47.352;8.164;2024-02-26T21:15:47;4.60;99.90
76838;DHT22;65797;47.352;8.164;2024-02-26T21:18:13;4.60;99.90
76838;DHT22;65797;47.352;8.164;2024-02-26T21:20:39;4.60;40.30
76838;DHT22;65797;47.352;8.164;2024-02-26T21:23:04;4.60;99.90
76838;DHT22;65797;47.352;8.164;2024-02-26T21:35:54;4.50;99.90
76838;DHT22;65797;47.352;8.164;2024-02-26T21:38:22;4.60;99.90
76838;DHT22;65797;47.352;8.164;2024-02-26T21:45:58;4.60;99.90
76838;DHT22;65797;47.352;8.164;2024-02-26T21:48:24;4.60;99.90
76838;DHT22;65797;47.352;8.164;2024-02-26T21:50:50;4.60;99.90
76838;DHT22;65797;47.352;8.164;2024-02-26T21:53:19;4.60;99.90
76838;DHT22;65797;47.352;8.164;2024-02-26T21:55:45;4.60;99.90
76838;DHT22;65797;47.352;8.164;2024-02-26T21:58:11;4.60;99.90
76838;DHT22;65797;47.352;8.164;2024-02-26T22:00:36;4.60;99.90
76838;DHT22;65797;47.352;8.164;2024-02-26T22:03:03;4.60;99.90
76838;DHT22;65797;47.352;8.164;2024-02-26T22:05:29;4.60;99.90
76838;DHT22;65797;47.352;8.164;2024-02-26T22:07:55;4.60;99.90
76838;DHT22;65797;47.352;8.164;2024-02-26T22:10:21;4.60;99.90
76838;DHT22;65797;47.352;8.164;2024-02-26T22:12:46;4.60;99.90
76838;DHT22;65797;47.352;8.164;2024-02-26T22:15:12;4.60;99.90
76838;DHT22;65797;47.352;8.164;2024-02-26T22:17:38;4.60;99.90
76838;DHT22;65797;47.352;8.164;2024-02-26T22:20:07;4.60;99.90
76838;DHT22;65797;47.352;8.164;2024-02-26T22:22:33;4.60;99.90
76838;DHT22;65797;47.352;8.164;2024-02-26T22:24:59;4.60;99.90
76838;DHT22;65797;47.352;8.164;2024-02-26T22:27:25;4.60;99.90
76838;DHT22;65797;47.352;8.164;2024-02-26T22:29:51;4.60;99.90
76838;DHT22;65797;47.352;8.164;2024-02-26T22:32:16;4.60;99.90
76838;DHT22;65797;47.352;8.164;2024-02-26T22:34:42;4.50;99.90
76838;DHT22;65797;47.352;8.164;2024-02-26T22:37:08;4.60;99.90
76838;DHT22;65797;47.352;8.164;2024-02-26T22:39:34;4.60;99.90
76838;DHT22;65797;47.352;8.164;2024-02-26T22:42:00;4.50;99.90
76838;DHT22;65797;47.352;8.164;2024-02-26T22:44:26;4.50;99.90
76838;DHT22;65797;47.352;8.164;2024-02-26T22:46:52;4.50;99.90
76838;DHT22;65797;47.352;8.164;2024-02-26T22:49:18;4.50;99.90
76838;DHT22;65797;47.352;8.164;2024-02-26T22:51:44;4.50;99.90
76838;DHT22;65797;47.352;8.164;2024-02-26T22:54:10;4.50;99.90
76838;DHT22;65797;47.352;8.164;2024-02-26T22:59:11;4.50;99.90
76838;DHT22;65797;47.352;8.164;2024-02-26T23:01:37;4.50;99.90
76838;DHT22;65797;47.352;8.164;2024-02-26T23:04:03;4.50;99.90
76838;DHT22;65797;47.352;8.164;2024-02-26T23:06:29;4.50;99.90
76838;DHT22;65797;47.352;8.164;2024-02-26T23:08:54;4.50;1.00
76838;DHT22;65797;47.352;8.164;2024-02-26T23:11:20;4.50;1.00
76838;DHT22;65797;47.352;8.164;2024-02-26T23:13:46;4.50;99.90
76838;DHT22;65797;47.352;8.164;2024-02-26T23:16:12;4.50;1.00
76838;DHT22;65797;47.352;8.164;2024-02-26T23:18:38;4.50;1.00
76838;DHT22;65797;47.352;8.164;2024-02-26T23:21:05;4.50;1.00
